createdAt,value
2022-09-06T00:01:12.291Z,17.45
2022-09-06T00:03:39.410Z,17.39
2022-09-06T00:06:09.201Z,17.41
2022-09-06T00:08:36.237Z,17.42
2022-09-06T00:11:02.901Z,17.45
2022-09-06T00:13:29.877Z,17.43
2022-09-06T00:15:56.613Z,17.25
2022-09-06T00:18:23.391Z,17.06
2022-09-06T00:20:50.038Z,17.17
2022-09-06T00:23:21.764Z,17.18
2022-09-06T00:25:48.327Z,17.14
2022-09-06T00:28:16.129Z,17.24
2022-09-06T00:30:42.770Z,17.24
2022-09-06T00:33:09.373Z,17.33
2022-09-06T00:35:35.955Z,17.03
2022-09-06T00:38:02.710Z,17.06
2022-09-06T00:40:35.835Z,17.01
2022-09-06T00:43:02.450Z,16.93
2022-09-06T00:45:31.189Z,17.01
2022-09-06T00:47:59.726Z,17.05
2022-09-06T00:50:27.941Z,17.09
2022-09-06T00:52:54.915Z,17.07
2022-09-06T00:55:21.989Z,16.89
2022-09-06T00:57:51.484Z,16.98
2022-09-06T01:00:22.162Z,17.07
2022-09-06T01:02:49.710Z,16.84
2022-09-06T01:05:18.234Z,16.91
2022-09-06T01:08:17.918Z,16.79
2022-09-06T01:11:10.379Z,16.80
2022-09-06T01:13:42.661Z,16.61
2022-09-06T01:16:26.019Z,16.60
2022-09-06T01:19:07.682Z,16.42
2022-09-06T01:21:53.124Z,16.29
2022-09-06T01:24:40.128Z,16.46
2022-09-06T01:27:12.415Z,16.31
2022-09-06T01:29:54.282Z,16.33
2022-09-06T01:32:32.991Z,16.42
2022-09-06T01:35:38.651Z,16.44
2022-09-06T01:38:11.498Z,16.38
2022-09-06T01:40:38.081Z,16.25
2022-09-06T01:43:10.897Z,16.40
2022-09-06T01:45:51.575Z,16.47
2022-09-06T01:48:27.170Z,16.45
2022-09-06T01:51:03.079Z,16.49
2022-09-06T01:54:00.555Z,16.35
2022-09-06T01:57:03.563Z,16.37
2022-09-06T01:59:45.144Z,16.24
2022-09-06T02:02:26.336Z,16.18
2022-09-06T02:05:02.262Z,16.37
2022-09-06T02:07:31.425Z,16.31
2022-09-06T02:10:13.507Z,16.30
2022-09-06T02:12:43.564Z,16.17
2022-09-06T02:15:23.703Z,16.17
2022-09-06T02:18:28.854Z,16.04
2022-09-06T02:20:58.673Z,16.19
2022-09-06T02:23:30.224Z,15.91
2022-09-06T02:26:03.083Z,15.80
2022-09-06T02:28:31.045Z,15.85
2022-09-06T02:31:12.236Z,15.85
2022-09-06T02:33:40.655Z,15.88
2022-09-06T02:36:09.229Z,15.88
2022-09-06T02:38:40.491Z,15.91
2022-09-06T02:41:09.633Z,15.90
2022-09-06T02:43:36.459Z,15.88
2022-09-06T02:46:04.101Z,15.86
2022-09-06T02:48:30.776Z,15.89
2022-09-06T02:51:05.477Z,15.97
2022-09-06T02:53:32.600Z,15.99
2022-09-06T02:55:59.888Z,16.03
2022-09-06T02:58:27.630Z,15.85
2022-09-06T03:00:54.368Z,15.84
2022-09-06T03:03:21.984Z,15.76
2022-09-06T03:05:50.900Z,15.82
2022-09-06T03:08:19.012Z,15.83
2022-09-06T03:10:49.940Z,15.84
2022-09-06T03:13:19.794Z,15.74
2022-09-06T03:15:54.159Z,15.84
2022-09-06T03:18:20.856Z,15.73
2022-09-06T03:20:49.754Z,15.68
2022-09-06T03:23:17.558Z,15.66
2022-09-06T03:25:44.689Z,15.60
2022-09-06T03:28:11.414Z,15.69
2022-09-06T03:30:38.046Z,15.62
2022-09-06T03:33:04.673Z,15.66
2022-09-06T03:35:31.539Z,15.69
2022-09-06T03:37:58.132Z,15.72
2022-09-06T03:40:24.695Z,15.66
2022-09-06T03:42:51.677Z,15.63
2022-09-06T03:45:19.307Z,15.60
2022-09-06T03:47:45.918Z,15.60
2022-09-06T03:50:12.752Z,15.65
2022-09-06T03:52:39.469Z,15.67
2022-09-06T03:55:06.938Z,15.50
2022-09-06T03:57:34.711Z,15.50
2022-09-06T04:00:01.356Z,15.49
2022-09-06T04:02:27.983Z,15.49
2022-09-06T04:04:55.630Z,15.40
2022-09-06T04:07:23.094Z,15.43
2022-09-06T04:09:50.751Z,15.52
2022-09-06T04:12:17.311Z,15.41
2022-09-06T04:14:44.043Z,15.34
2022-09-06T04:17:10.752Z,15.37
2022-09-06T04:19:37.374Z,15.34
2022-09-06T04:22:03.966Z,15.33
2022-09-06T04:24:30.542Z,15.27
2022-09-06T04:26:57.170Z,15.18
2022-09-06T04:29:24.529Z,15.22
2022-09-06T04:31:51.150Z,15.23
2022-09-06T04:34:17.809Z,15.03
2022-09-06T04:36:48.195Z,15.13
2022-09-06T04:39:15.244Z,15.15
2022-09-06T04:41:42.680Z,15.16
2022-09-06T04:44:09.457Z,15.14
2022-09-06T04:46:36.105Z,15.13
2022-09-06T04:49:03.211Z,15.18
2022-09-06T04:51:29.931Z,15.15
2022-09-06T04:53:56.543Z,15.27
2022-09-06T04:56:25.450Z,15.24
2022-09-06T04:58:54.199Z,15.42
2022-09-06T05:01:21.483Z,15.42
2022-09-06T05:03:48.204Z,15.42
2022-09-06T05:06:24.996Z,15.33
2022-09-06T05:08:52.660Z,15.25
2022-09-06T05:11:19.743Z,15.26
2022-09-06T05:13:47.486Z,15.29
2022-09-06T05:16:14.398Z,15.31
2022-09-06T05:18:41.058Z,15.41
2022-09-06T05:21:08.030Z,15.34
2022-09-06T05:23:34.710Z,15.32
2022-09-06T05:26:01.522Z,15.54
2022-09-06T05:28:29.261Z,15.46
2022-09-06T05:31:10.761Z,15.59
2022-09-06T05:33:37.882Z,15.67
2022-09-06T05:36:06.365Z,16.10
2022-09-06T05:38:33.563Z,16.48
2022-09-06T05:41:00.434Z,16.77
2022-09-06T05:43:27.169Z,17.19
2022-09-06T05:45:53.863Z,17.82
2022-09-06T05:48:20.570Z,18.29
2022-09-06T05:50:47.179Z,18.79
2022-09-06T05:53:13.880Z,18.72
2022-09-06T05:55:42.984Z,19.49
2022-09-06T05:58:09.917Z,19.93
2022-09-06T06:00:37.647Z,20.10
2022-09-06T06:03:04.307Z,20.42
2022-09-06T06:05:30.918Z,20.06
2022-09-06T06:07:59.684Z,19.83
2022-09-06T06:10:27.285Z,20.49
2022-09-06T06:12:54.035Z,20.61
2022-09-06T06:15:20.612Z,21.00
2022-09-06T06:17:47.233Z,20.40
2022-09-06T06:20:13.904Z,20.69
2022-09-06T06:22:40.511Z,21.51
2022-09-06T06:25:07.427Z,21.86
2022-09-06T06:27:35.440Z,21.73
2022-09-06T06:30:02.013Z,21.47
2022-09-06T06:32:28.669Z,21.81
2022-09-06T06:34:55.259Z,20.85
2022-09-06T06:37:21.837Z,20.71
2022-09-06T06:39:48.433Z,21.69
2022-09-06T06:42:16.100Z,22.68
2022-09-06T06:44:42.845Z,23.00
2022-09-06T06:47:09.425Z,22.76
2022-09-06T06:49:36.009Z,23.23
2022-09-06T06:52:02.803Z,23.44
2022-09-06T06:54:29.917Z,24.00
2022-09-06T06:56:56.687Z,24.64
2022-09-06T06:59:23.359Z,24.39
2022-09-06T07:01:50.783Z,24.85
2022-09-06T07:04:17.622Z,25.15
2022-09-06T07:12:28.644Z,23.99
2022-09-06T07:14:55.675Z,23.58
2022-09-06T07:17:22.277Z,23.02
2022-09-06T07:22:35.441Z,22.15
2022-09-06T07:25:02.786Z,21.91
2022-09-06T07:30:12.077Z,23.58
2022-09-06T07:32:38.655Z,24.30
2022-09-06T07:35:05.710Z,24.73
2022-09-06T07:37:32.301Z,25.08
2022-09-06T07:39:58.894Z,25.35
2022-09-06T07:42:25.502Z,26.02
2022-09-06T07:44:52.071Z,24.90
2022-09-06T07:53:10.843Z,25.93
2022-09-06T07:55:39.028Z,25.62
2022-09-06T07:58:05.677Z,26.00
2022-09-06T08:00:32.300Z,26.21
2022-09-06T08:02:59.162Z,26.67
2022-09-06T08:10:58.881Z,26.23
2022-09-06T08:13:25.472Z,25.29
2022-09-06T08:16:03.543Z,24.81
2022-09-06T08:18:31.287Z,24.56
2022-09-06T08:21:11.528Z,25.10
2022-09-06T08:23:45.348Z,25.43
2022-09-06T08:26:12.150Z,24.67
2022-09-06T08:28:38.888Z,24.43
2022-09-06T08:31:11.183Z,24.84
2022-09-06T08:33:39.016Z,25.82
2022-09-06T08:36:06.786Z,26.20
2022-09-06T08:38:33.986Z,26.16
2022-09-06T08:41:46.264Z,26.53
2022-09-06T08:47:38.536Z,25.80
2022-09-06T08:50:09.401Z,25.92
2022-09-06T08:53:16.603Z,25.87
2022-09-06T08:55:59.646Z,25.53
2022-09-06T08:58:58.567Z,25.60
2022-09-06T09:01:37.931Z,26.08
2022-09-06T09:04:08.166Z,25.05
2022-09-06T09:06:35.497Z,25.04
2022-09-06T09:09:13.418Z,25.13
2022-09-06T09:11:44.739Z,25.18
2022-09-06T09:14:17.473Z,24.75
2022-09-06T09:16:44.439Z,26.10
2022-09-06T09:19:11.181Z,26.93
2022-09-06T09:21:40.232Z,27.13
2022-09-06T09:24:09.676Z,27.22
2022-09-06T09:26:42.646Z,27.46
2022-09-06T09:29:12.605Z,27.48
2022-09-06T09:31:41.923Z,27.03
2022-09-06T09:34:13.824Z,26.57
2022-09-06T09:36:41.042Z,26.84
2022-09-06T09:39:12.035Z,27.52
2022-09-06T09:41:43.687Z,27.85
2022-09-06T09:44:17.670Z,28.46
2022-09-06T09:46:44.692Z,27.86
2022-09-06T09:49:14.065Z,27.20
2022-09-06T09:51:43.202Z,27.00
2022-09-06T09:54:12.880Z,26.55
2022-09-06T09:56:52.933Z,26.48
2022-09-06T09:59:27.595Z,26.87
2022-09-06T10:01:58.141Z,27.86
2022-09-06T10:04:47.476Z,27.30
2022-09-06T10:07:23.311Z,26.25
2022-09-06T10:09:59.234Z,26.51
2022-09-06T10:12:40.944Z,26.53
2022-09-06T10:15:09.953Z,26.23
2022-09-06T10:17:47.650Z,26.26
2022-09-06T10:20:14.897Z,26.23
2022-09-06T10:23:06.600Z,25.86
2022-09-06T10:25:49.190Z,26.37
2022-09-06T10:28:36.541Z,26.00
2022-09-06T10:31:12.977Z,27.01
2022-09-06T10:34:04.574Z,27.44
2022-09-06T10:36:37.404Z,27.54
2022-09-06T10:39:25.635Z,27.87
2022-09-06T10:42:07.192Z,28.46
2022-09-06T10:44:54.462Z,28.47
2022-09-06T10:47:27.553Z,28.23
2022-09-06T10:49:57.911Z,28.38
2022-09-06T10:52:28.904Z,28.36
2022-09-06T10:55:02.226Z,28.69
2022-09-06T11:00:47.421Z,28.27
2022-09-06T11:06:12.486Z,28.04
2022-09-06T11:08:53.578Z,28.47
2022-09-06T11:12:02.593Z,28.66
2022-09-06T11:14:30.235Z,28.78
2022-09-06T11:17:05.003Z,28.98
2022-09-06T11:19:49.019Z,28.73
2022-09-06T11:23:00.600Z,28.49
2022-09-06T11:25:36.354Z,28.61
2022-09-06T11:28:09.211Z,28.63
2022-09-06T11:30:37.481Z,29.26
2022-09-06T11:33:16.609Z,28.93
2022-09-06T11:35:43.211Z,29.23
2022-09-06T11:38:16.757Z,28.97
2022-09-06T11:40:47.915Z,29.25
2022-09-06T11:43:29.726Z,29.28
2022-09-06T11:45:57.339Z,29.58
2022-09-06T11:48:23.942Z,29.26
2022-09-06T11:50:59.461Z,28.86
2022-09-06T11:53:32.094Z,28.63
2022-09-06T11:56:01.467Z,28.62
2022-09-06T11:58:40.047Z,29.07
2022-09-06T12:01:12.783Z,29.58
2022-09-06T12:04:05.382Z,29.39
2022-09-06T12:07:03.739Z,29.17
2022-09-06T12:09:37.773Z,29.17
2022-09-06T12:12:04.828Z,29.16
2022-09-06T12:14:36.046Z,28.84
2022-09-06T12:17:04.898Z,28.95
2022-09-06T12:19:48.272Z,28.59
2022-09-06T12:22:27.069Z,28.94
2022-09-06T12:25:00.125Z,29.04
2022-09-06T12:27:30.562Z,29.29
2022-09-06T12:30:07.555Z,29.13
2022-09-06T12:32:41.911Z,29.32
2022-09-06T12:38:06.877Z,29.44
2022-09-06T12:40:45.841Z,29.32
2022-09-06T12:43:15.438Z,29.22
2022-09-06T12:45:48.059Z,29.11
2022-09-06T12:48:28.401Z,28.87
2022-09-06T12:51:04.245Z,28.80
2022-09-06T12:53:31.766Z,28.68
2022-09-06T12:56:08.013Z,28.72
2022-09-06T12:58:35.313Z,28.78
2022-09-06T13:01:14.727Z,28.90
2022-09-06T13:03:50.413Z,28.64
2022-09-06T13:06:26.843Z,29.04
2022-09-06T13:08:57.225Z,29.42
2022-09-06T13:11:39.803Z,29.32
2022-09-06T13:14:17.548Z,29.92
2022-09-06T13:16:47.479Z,29.61
2022-09-06T13:19:40.599Z,29.82
2022-09-06T13:22:10.929Z,30.05
2022-09-06T13:24:46.380Z,29.46
2022-09-06T13:27:37.139Z,29.58
2022-09-06T13:30:10.878Z,29.69
2022-09-06T13:32:46.620Z,29.54
2022-09-06T13:35:24.003Z,29.87
2022-09-06T13:37:50.586Z,29.76
2022-09-06T13:40:53.884Z,29.49
2022-09-06T13:43:25.177Z,29.50
2022-09-06T13:46:05.056Z,29.76
2022-09-06T13:48:31.719Z,29.77
2022-09-06T13:50:58.696Z,29.81
2022-09-06T13:53:25.310Z,29.67
2022-09-06T13:55:52.853Z,29.39
2022-09-06T13:58:19.517Z,29.37
2022-09-06T14:00:46.935Z,29.83
2022-09-06T14:03:26.917Z,29.67
2022-09-06T14:05:53.701Z,29.58
2022-09-06T14:08:21.223Z,29.53
2022-09-06T14:10:48.456Z,30.04
2022-09-06T14:13:18.892Z,29.45
2022-09-06T14:15:49.409Z,29.54
2022-09-06T14:18:17.220Z,29.58
2022-09-06T14:20:52.457Z,29.48
2022-09-06T14:23:19.321Z,29.44
2022-09-06T14:25:45.941Z,29.39
2022-09-06T14:28:12.755Z,29.42
2022-09-06T14:30:39.395Z,29.51
2022-09-06T14:33:06.098Z,29.27
2022-09-06T14:35:32.954Z,29.35
2022-09-06T14:38:00.609Z,29.27
2022-09-06T14:40:27.565Z,29.30
2022-09-06T14:42:56.660Z,29.03
2022-09-06T14:45:23.247Z,29.19
2022-09-06T14:47:49.886Z,29.04
2022-09-06T14:50:16.744Z,29.20
2022-09-06T14:52:43.373Z,29.19
2022-09-06T14:55:10.985Z,29.32
2022-09-06T14:57:37.561Z,29.26
2022-09-06T15:00:08.661Z,28.98
2022-09-06T15:02:35.633Z,29.03
2022-09-06T15:05:02.825Z,29.11
2022-09-06T15:07:29.649Z,29.13
2022-09-06T15:09:56.258Z,29.18
2022-09-06T15:12:23.019Z,29.16
2022-09-06T15:14:49.686Z,29.14
2022-09-06T15:17:16.498Z,29.14
2022-09-06T15:19:43.189Z,29.01
2022-09-06T15:22:09.762Z,28.93
2022-09-06T15:24:36.847Z,28.99
2022-09-06T15:27:03.864Z,28.93
2022-09-06T15:29:32.537Z,28.93
2022-09-06T15:32:08.151Z,28.86
2022-09-06T15:34:35.540Z,28.96
2022-09-06T15:37:02.099Z,28.93
2022-09-06T15:39:28.807Z,28.87
2022-09-06T15:41:57.125Z,28.83
2022-09-06T15:44:23.804Z,28.75
2022-09-06T15:46:57.261Z,28.67
2022-09-06T15:49:32.138Z,28.45
2022-09-06T15:52:02.589Z,28.55
2022-09-06T15:54:49.495Z,28.41
2022-09-06T15:57:17.413Z,28.67
2022-09-06T15:59:44.366Z,28.39
2022-09-06T16:02:11.816Z,28.45
2022-09-06T16:04:38.982Z,28.40
2022-09-06T16:07:05.913Z,28.45
2022-09-06T16:09:32.512Z,28.53
2022-09-06T16:11:59.128Z,28.24
2022-09-06T16:14:25.954Z,28.37
2022-09-06T16:16:54.878Z,28.29
2022-09-06T16:19:21.641Z,28.10
2022-09-06T16:21:48.222Z,28.21
2022-09-06T16:24:15.393Z,27.97
2022-09-06T16:26:44.378Z,27.99
2022-09-06T16:29:12.909Z,27.97
2022-09-06T16:31:40.875Z,28.02
2022-09-06T16:34:14.129Z,27.91
2022-09-06T16:36:41.224Z,27.82
2022-09-06T16:39:08.591Z,27.62
2022-09-06T16:41:43.901Z,27.60
2022-09-06T16:44:17.456Z,27.55
2022-09-06T16:46:46.339Z,27.46
2022-09-06T16:49:13.258Z,27.49
2022-09-06T16:51:47.682Z,27.32
2022-09-06T16:54:15.615Z,27.24
2022-09-06T16:56:42.861Z,27.13
2022-09-06T16:59:10.595Z,27.01
2022-09-06T17:01:41.382Z,26.89
2022-09-06T17:04:08.150Z,26.47
2022-09-06T17:06:38.364Z,26.56
2022-09-06T17:09:05.331Z,26.45
2022-09-06T17:11:31.903Z,26.21
2022-09-06T17:13:58.495Z,26.12
2022-09-06T17:16:44.875Z,26.03
2022-09-06T17:19:12.035Z,25.97
2022-09-06T17:21:40.089Z,25.89
2022-09-06T17:24:08.430Z,25.82
2022-09-06T17:26:37.538Z,25.72
2022-09-06T17:29:04.734Z,25.66
2022-09-06T17:31:31.449Z,25.56
2022-09-06T17:33:59.687Z,25.48
2022-09-06T17:36:30.566Z,25.37
2022-09-06T17:39:01.869Z,25.26
2022-09-06T17:41:45.752Z,25.13
2022-09-06T17:44:14.811Z,24.94
2022-09-06T17:46:56.991Z,24.78
2022-09-06T17:49:34.478Z,24.65
2022-09-06T17:52:01.057Z,24.65
2022-09-06T17:54:27.980Z,24.72
2022-09-06T17:56:57.558Z,24.72
2022-09-06T17:59:24.148Z,24.48
2022-09-06T18:01:52.480Z,24.28
2022-09-06T18:04:19.541Z,24.23
2022-09-06T18:06:47.542Z,24.08
2022-09-06T18:09:16.890Z,23.98
2022-09-06T18:11:45.991Z,23.94
2022-09-06T18:14:16.575Z,23.92
2022-09-06T18:16:49.028Z,23.79
2022-09-06T18:19:16.642Z,23.70
2022-09-06T18:21:43.497Z,23.62
2022-09-06T18:24:14.041Z,23.46
2022-09-06T18:26:41.648Z,23.45
2022-09-06T18:29:12.034Z,23.76
2022-09-06T18:31:39.902Z,23.23
2022-09-06T18:34:07.890Z,23.30
2022-09-06T18:36:35.108Z,23.24
2022-09-06T18:39:04.752Z,23.16
2022-09-06T18:42:04.687Z,23.24
2022-09-06T18:44:33.291Z,23.17
2022-09-06T18:47:06.046Z,23.11
2022-09-06T18:49:33.850Z,23.16
2022-09-06T18:52:02.459Z,23.07
2022-09-06T18:54:29.270Z,23.10
2022-09-06T18:56:56.436Z,22.80
2022-09-06T18:59:23.494Z,22.93
2022-09-06T19:01:50.275Z,22.95
2022-09-06T19:04:17.204Z,22.90
2022-09-06T19:06:45.073Z,22.80
2022-09-06T19:09:15.079Z,22.79
2022-09-06T19:11:43.487Z,22.49
2022-09-06T19:14:10.314Z,22.25
2022-09-06T19:16:37.001Z,22.29
2022-09-06T19:19:07.029Z,22.41
2022-09-06T19:21:39.154Z,22.54
2022-09-06T19:24:09.277Z,22.33
2022-09-06T19:26:38.249Z,22.39
2022-09-06T19:29:09.194Z,22.32
2022-09-06T19:31:38.363Z,22.07
2022-09-06T19:34:07.461Z,22.15
2022-09-06T19:36:34.162Z,22.07
2022-09-06T19:39:06.722Z,21.86
2022-09-06T19:41:37.981Z,21.96
2022-09-06T19:44:05.977Z,21.84
2022-09-06T19:46:33.135Z,22.10
2022-09-06T19:49:00.926Z,21.86
2022-09-06T19:51:28.628Z,21.85
2022-09-06T19:54:02.745Z,21.77
2022-09-06T19:56:33.886Z,21.57
2022-09-06T19:59:03.374Z,21.60
2022-09-06T20:01:32.972Z,21.54
2022-09-06T20:04:02.673Z,21.48
2022-09-06T20:06:30.274Z,21.57
2022-09-06T20:08:58.146Z,21.62
2022-09-06T20:11:27.541Z,21.42
2022-09-06T20:13:54.507Z,21.44
2022-09-06T20:16:24.765Z,21.33
2022-09-06T20:18:52.443Z,21.09
2022-09-06T20:21:21.142Z,21.14
2022-09-06T20:23:55.366Z,21.02
2022-09-06T20:26:23.911Z,21.02
2022-09-06T20:29:01.548Z,20.95
2022-09-06T20:31:29.989Z,20.89
2022-09-06T20:33:59.156Z,20.93
2022-09-06T20:36:26.057Z,20.74
2022-09-06T20:38:52.675Z,20.76
2022-09-06T20:41:21.506Z,20.62
2022-09-06T20:43:53.215Z,20.61
2022-09-06T20:46:22.037Z,20.61
2022-09-06T20:48:51.911Z,20.42
2022-09-06T20:51:20.764Z,20.51
2022-09-06T20:53:51.751Z,20.45
2022-09-06T20:56:20.937Z,20.35
2022-09-06T20:58:56.289Z,20.41
2022-09-06T21:01:25.110Z,20.29
2022-09-06T21:03:54.556Z,20.03
2022-09-06T21:06:23.109Z,19.96
2022-09-06T21:08:53.714Z,19.96
2022-09-06T21:11:20.578Z,19.89
2022-09-06T21:13:51.621Z,19.93
2022-09-06T21:16:24.411Z,19.91
2022-09-06T21:18:56.941Z,19.89
2022-09-06T21:21:24.846Z,19.88
2022-09-06T21:23:51.844Z,19.78
2022-09-06T21:26:29.316Z,19.73
2022-09-06T21:28:56.102Z,19.64
2022-09-06T21:31:25.269Z,19.76
2022-09-06T21:33:54.418Z,19.62
2022-09-06T21:36:32.269Z,19.63
2022-09-06T21:39:09.904Z,19.62
2022-09-06T21:41:43.464Z,19.71
2022-09-06T21:44:10.610Z,19.72
2022-09-06T21:46:38.833Z,19.64
2022-09-06T21:49:08.942Z,19.63
2022-09-06T21:51:36.079Z,19.56
2022-09-06T21:54:04.477Z,19.42
2022-09-06T21:56:34.052Z,19.37
2022-09-06T21:59:00.834Z,19.34
2022-09-06T22:01:29.769Z,19.39
2022-09-06T22:03:56.574Z,19.30
2022-09-06T22:06:25.795Z,19.20
2022-09-06T22:08:52.908Z,19.04
2022-09-06T22:11:24.873Z,19.14
2022-09-06T22:13:51.554Z,19.15
2022-09-06T22:16:20.839Z,19.20
2022-09-06T22:18:49.099Z,19.24
2022-09-06T22:21:21.259Z,19.13
2022-09-06T22:23:51.718Z,19.03
2022-09-06T22:26:19.141Z,19.11
2022-09-06T22:28:46.220Z,19.15
2022-09-06T22:31:13.131Z,19.13
2022-09-06T22:33:39.903Z,18.98
2022-09-06T22:36:07.425Z,18.81
2022-09-06T22:38:38.264Z,18.88
2022-09-06T22:41:05.352Z,18.83
2022-09-06T22:43:32.262Z,18.68
2022-09-06T22:46:08.559Z,18.62
2022-09-06T22:48:35.798Z,18.63
2022-09-06T22:51:03.748Z,18.57
2022-09-06T22:53:31.957Z,18.61
2022-09-06T22:55:59.069Z,18.59
2022-09-06T22:58:29.592Z,18.58
2022-09-06T23:00:57.206Z,18.53
2022-09-06T23:03:23.970Z,18.25
2022-09-06T23:05:50.611Z,18.31
2022-09-06T23:08:18.184Z,18.38
2022-09-06T23:10:44.780Z,18.24
2022-09-06T23:13:11.765Z,18.16
2022-09-06T23:15:40.876Z,18.19
2022-09-06T23:18:08.493Z,18.19
2022-09-06T23:20:37.084Z,18.06
2022-09-06T23:23:04.639Z,17.92
2022-09-06T23:25:31.388Z,18.04
2022-09-06T23:28:00.249Z,17.96
2022-09-06T23:30:27.843Z,17.83
2022-09-06T23:32:56.460Z,17.79
2022-09-06T23:35:25.143Z,17.73
2022-09-06T23:37:52.284Z,17.78
2022-09-06T23:40:19.646Z,17.88
2022-09-06T23:42:47.219Z,17.90
2022-09-06T23:45:13.992Z,17.91
2022-09-06T23:47:41.243Z,17.61
2022-09-06T23:50:08.103Z,17.81
2022-09-06T23:52:34.708Z,17.80
2022-09-06T23:55:01.371Z,17.73
2022-09-06T23:57:27.957Z,17.66
2022-09-06T23:59:54.631Z,17.54
